createdAt,value
2019-02-16T00:00:08.541Z,58.60
2019-02-16T00:01:14.060Z,58.60
2019-02-16T00:02:18.203Z,58.60
2019-02-16T00:03:22.272Z,58.50
2019-02-16T00:04:26.355Z,58.60
2019-02-16T00:05:30.700Z,58.50
2019-02-16T00:06:34.767Z,58.60
2019-02-16T00:07:38.833Z,58.50
2019-02-16T00:08:42.925Z,58.50
2019-02-16T00:09:47.063Z,58.50
2019-02-16T00:10:51.141Z,58.60
2019-02-16T00:11:55.268Z,58.60
2019-02-16T00:12:59.344Z,58.60
2019-02-16T00:14:05.504Z,58.60
2019-02-16T00:15:09.684Z,58.70
2019-02-16T00:16:14.082Z,58.60
2019-02-16T00:17:18.431Z,58.60
2019-02-16T00:18:23.061Z,58.60
2019-02-16T00:19:27.252Z,58.70
2019-02-16T00:20:33.292Z,58.60
2019-02-16T00:21:37.126Z,58.70
2019-02-16T00:22:41.204Z,58.80
2019-02-16T00:23:45.346Z,58.80
2019-02-16T00:24:49.426Z,58.80
2019-02-16T00:25:53.502Z,58.90
2019-02-16T00:26:57.646Z,59.40
2019-02-16T00:28:01.724Z,59.00
2019-02-16T00:29:05.790Z,59.00
2019-02-16T00:30:10.423Z,59.40
2019-02-16T00:31:14.483Z,58.90
2019-02-16T00:32:18.552Z,59.00
2019-02-16T00:33:22.621Z,59.00
2019-02-16T00:34:29.199Z,59.10
2019-02-16T00:35:33.279Z,59.10
2019-02-16T00:36:37.356Z,59.20
2019-02-16T00:37:41.436Z,59.60
2019-02-16T00:38:45.510Z,59.20
2019-02-16T00:39:51.632Z,59.20
2019-02-16T00:40:55.715Z,59.20
2019-02-16T00:41:59.783Z,59.30
2019-02-16T00:43:08.346Z,59.30
2019-02-16T00:44:12.500Z,59.40
2019-02-16T00:45:16.566Z,59.40
2019-02-16T00:46:23.948Z,59.40
2019-02-16T00:47:32.040Z,59.40
2019-02-16T00:48:36.135Z,59.50
2019-02-16T00:49:40.190Z,59.50
2019-02-16T00:50:44.279Z,59.50
2019-02-16T00:51:48.355Z,59.60
2019-02-16T00:52:52.427Z,59.60
2019-02-16T00:53:56.763Z,59.70
2019-02-16T00:55:00.838Z,59.70
2019-02-16T00:56:06.908Z,59.70
2019-02-16T00:57:12.552Z,59.70
2019-02-16T00:58:16.620Z,59.70
2019-02-16T00:59:20.691Z,60.30
2019-02-16T01:00:24.778Z,59.80
2019-02-16T01:01:28.976Z,59.80
2019-02-16T01:02:33.055Z,59.80
2019-02-16T01:03:38.816Z,59.80
2019-02-16T01:04:42.887Z,60.40
2019-02-16T01:05:47.073Z,59.80
2019-02-16T01:06:51.227Z,59.80
2019-02-16T01:07:55.403Z,59.90
2019-02-16T01:08:59.530Z,59.90
2019-02-16T01:10:03.612Z,59.90
2019-02-16T01:11:08.161Z,59.90
2019-02-16T01:12:12.338Z,59.90
2019-02-16T01:13:16.435Z,59.90
2019-02-16T01:14:20.512Z,59.90
2019-02-16T01:15:24.583Z,59.90
2019-02-16T01:16:28.655Z,60.00
2019-02-16T01:17:32.752Z,60.00
2019-02-16T01:18:36.819Z,60.00
2019-02-16T01:19:40.895Z,60.00
2019-02-16T01:20:44.974Z,60.00
2019-02-16T01:21:49.043Z,60.00
2019-02-16T01:22:53.132Z,60.10
2019-02-16T01:23:57.231Z,60.10
2019-02-16T01:25:01.566Z,60.10
2019-02-16T01:26:05.718Z,60.10
2019-02-16T01:27:10.112Z,60.20
2019-02-16T01:28:14.194Z,60.30
2019-02-16T01:29:18.259Z,60.30
2019-02-16T01:30:22.325Z,60.30
2019-02-16T01:31:26.391Z,60.30
2019-02-16T01:32:30.478Z,61.00
2019-02-16T01:33:37.433Z,60.40
2019-02-16T01:34:47.725Z,61.10
2019-02-16T01:35:55.404Z,61.10
2019-02-16T01:36:59.483Z,60.50
2019-02-16T01:38:03.567Z,60.60
2019-02-16T01:39:08.419Z,60.60
2019-02-16T01:40:14.787Z,60.60
2019-02-16T01:41:18.867Z,61.30
2019-02-16T01:42:22.943Z,60.70
2019-02-16T01:43:27.031Z,60.80
2019-02-16T01:44:31.123Z,60.90
2019-02-16T01:45:35.223Z,60.90
2019-02-16T01:46:39.300Z,60.90
2019-02-16T01:47:43.383Z,61.00
2019-02-16T01:48:47.487Z,61.60
2019-02-16T01:49:51.563Z,61.00
2019-02-16T01:50:55.646Z,61.00
2019-02-16T01:51:59.724Z,61.10
2019-02-16T01:53:03.819Z,61.10
2019-02-16T01:54:08.344Z,61.10
2019-02-16T01:55:12.515Z,61.20
2019-02-16T01:56:16.587Z,61.20
2019-02-16T01:57:21.764Z,61.30
2019-02-16T01:58:25.850Z,61.40
2019-02-16T01:59:29.925Z,61.40
2019-02-16T02:00:33.995Z,61.40
2019-02-16T02:01:38.343Z,61.40
2019-02-16T02:02:43.521Z,61.50
2019-02-16T02:03:47.614Z,61.50
2019-02-16T02:04:51.954Z,61.50
2019-02-16T02:05:56.027Z,61.60
2019-02-16T02:07:00.097Z,61.70
2019-02-16T02:08:05.300Z,61.60
2019-02-16T02:09:09.533Z,61.70
2019-02-16T02:10:14.751Z,61.80
2019-02-16T02:11:18.819Z,61.90
2019-02-16T02:12:26.008Z,61.90
2019-02-16T02:13:30.091Z,62.00
2019-02-16T02:14:34.442Z,62.10
2019-02-16T02:15:38.523Z,62.10
2019-02-16T02:16:42.603Z,62.20
2019-02-16T02:17:46.671Z,62.30
2019-02-16T02:18:50.764Z,62.40
2019-02-16T02:19:54.835Z,62.40
2019-02-16T02:21:04.207Z,62.50
2019-02-16T02:22:08.434Z,62.60
2019-02-16T02:23:17.145Z,62.60
2019-02-16T02:24:18.455Z,62.60
2019-02-16T02:25:22.525Z,62.70
2019-02-16T02:26:29.046Z,62.70
2019-02-16T02:27:33.115Z,62.70
2019-02-16T02:28:37.208Z,62.70
2019-02-16T02:29:43.103Z,62.70
2019-02-16T02:30:47.302Z,62.70
2019-02-16T02:31:51.420Z,62.90
2019-02-16T02:32:55.482Z,62.80
2019-02-16T02:33:59.568Z,63.00
2019-02-16T02:35:03.675Z,63.00
2019-02-16T02:36:07.800Z,63.00
2019-02-16T02:37:12.463Z,63.10
2019-02-16T02:38:16.547Z,63.10
2019-02-16T02:39:28.055Z,63.10
2019-02-16T02:40:32.110Z,63.10
2019-02-16T02:41:36.463Z,63.10
2019-02-16T02:42:40.545Z,63.20
2019-02-16T02:43:44.632Z,63.10
2019-02-16T02:44:48.711Z,63.10
2019-02-16T02:45:52.785Z,63.20
2019-02-16T02:46:56.842Z,63.10
2019-02-16T02:48:00.907Z,63.20
2019-02-16T02:49:09.070Z,63.30
2019-02-16T02:50:13.256Z,63.30
2019-02-16T02:51:17.333Z,63.40
2019-02-16T02:52:21.404Z,63.50
2019-02-16T02:53:31.150Z,63.60
2019-02-16T02:54:31.291Z,63.60
2019-02-16T02:55:35.356Z,63.70
2019-02-16T02:56:39.432Z,63.80
2019-02-16T02:57:43.518Z,63.80
2019-02-16T02:58:47.594Z,63.80
2019-02-16T02:59:51.675Z,63.80
2019-02-16T03:01:00.032Z,63.90
2019-02-16T03:02:04.297Z,63.80
2019-02-16T03:03:08.407Z,63.80
2019-02-16T03:04:12.495Z,63.80
2019-02-16T03:05:16.574Z,63.80
2019-02-16T03:06:23.683Z,63.80
2019-02-16T03:07:27.737Z,63.80
2019-02-16T03:08:39.240Z,63.90
2019-02-16T03:09:43.408Z,64.00
2019-02-16T03:10:47.487Z,64.00
2019-02-16T03:11:51.558Z,64.10
2019-02-16T03:12:55.631Z,64.10
2019-02-16T03:13:59.686Z,64.80
2019-02-16T03:15:03.783Z,64.20
2019-02-16T03:16:08.224Z,64.20
2019-02-16T03:17:12.343Z,64.30
2019-02-16T03:18:16.421Z,64.30
2019-02-16T03:19:20.483Z,64.30
2019-02-16T03:20:24.567Z,64.40
2019-02-16T03:21:28.636Z,64.50
2019-02-16T03:23:16.343Z,64.50
2019-02-16T03:24:20.433Z,64.50
2019-02-16T03:25:24.524Z,64.60
2019-02-16T03:27:04.531Z,64.60
2019-02-16T03:28:51.890Z,64.60
2019-02-16T03:30:35.200Z,64.70
2019-02-16T03:32:23.650Z,64.80
2019-02-16T03:33:57.824Z,64.80
2019-02-16T03:35:50.016Z,65.00
2019-02-16T03:37:34.992Z,65.10
2019-02-16T03:38:56.405Z,65.30
2019-02-16T03:40:00.512Z,65.20
2019-02-16T03:41:04.595Z,65.20
2019-02-16T03:42:09.462Z,65.30
2019-02-16T03:43:13.596Z,65.30
2019-02-16T03:44:22.327Z,65.50
2019-02-16T03:45:26.391Z,65.70
2019-02-16T03:46:30.479Z,65.80
2019-02-16T03:47:35.751Z,65.90
2019-02-16T03:48:41.016Z,66.00
2019-02-16T03:49:45.112Z,66.10
2019-02-16T03:50:49.194Z,66.10
2019-02-16T03:51:53.290Z,66.10
2019-02-16T03:52:57.347Z,66.20
2019-02-16T03:54:01.415Z,66.20
2019-02-16T03:55:05.681Z,66.30
2019-02-16T03:56:10.813Z,66.30
2019-02-16T03:57:14.963Z,66.30
2019-02-16T03:58:19.023Z,66.40
2019-02-16T03:59:25.835Z,66.50
2019-02-16T04:00:29.982Z,66.70
2019-02-16T04:01:34.069Z,66.70
2019-02-16T04:02:38.162Z,66.60
2019-02-16T04:03:42.237Z,66.60
2019-02-16T04:04:46.307Z,66.50
2019-02-16T04:05:50.384Z,66.50
2019-02-16T04:06:54.454Z,66.50
2019-02-16T04:07:58.543Z,66.50
2019-02-16T04:09:03.330Z,66.40
2019-02-16T04:10:07.401Z,66.50
2019-02-16T04:11:11.936Z,66.50
2019-02-16T04:12:16.031Z,67.10
2019-02-16T04:13:20.176Z,66.50
2019-02-16T04:14:24.250Z,66.50
2019-02-16T04:15:28.579Z,66.50
2019-02-16T04:16:32.678Z,66.50
2019-02-16T04:17:36.767Z,66.50
2019-02-16T04:18:40.840Z,66.50
2019-02-16T04:19:45.177Z,66.50
2019-02-16T04:20:49.240Z,66.50
2019-02-16T04:21:53.311Z,66.40
2019-02-16T04:22:57.397Z,66.50
2019-02-16T04:24:01.502Z,66.50
2019-02-16T04:25:05.627Z,66.60
2019-02-16T04:26:11.972Z,66.60
2019-02-16T04:27:16.138Z,66.60
2019-02-16T04:28:20.219Z,66.60
2019-02-16T04:29:24.282Z,66.60
2019-02-16T04:30:28.664Z,66.60
2019-02-16T04:31:32.727Z,66.60
2019-02-16T04:32:36.807Z,66.60
2019-02-16T04:33:40.904Z,66.60
2019-02-16T04:34:44.979Z,66.80
2019-02-16T04:35:49.057Z,66.70
2019-02-16T04:36:53.123Z,66.80
2019-02-16T04:38:06.051Z,66.80
2019-02-16T04:39:10.348Z,66.80
2019-02-16T04:40:14.406Z,66.90
2019-02-16T04:41:18.560Z,66.90
2019-02-16T04:42:22.622Z,66.90
2019-02-16T04:43:26.718Z,66.90
2019-02-16T04:44:30.879Z,66.90
2019-02-16T04:45:34.957Z,67.00
2019-02-16T04:46:42.186Z,67.00
2019-02-16T04:47:46.248Z,67.10
2019-02-16T04:48:53.274Z,67.10
2019-02-16T04:49:57.348Z,67.20
2019-02-16T04:51:01.421Z,67.30
2019-02-16T04:52:05.539Z,67.20
2019-02-16T04:53:10.032Z,67.30
2019-02-16T04:54:14.216Z,67.30
2019-02-16T04:55:18.314Z,67.40
2019-02-16T04:56:22.388Z,67.40
2019-02-16T04:57:29.341Z,67.40
2019-02-16T04:58:32.454Z,67.40
2019-02-16T04:59:41.219Z,67.40
2019-02-16T05:00:45.282Z,67.40
2019-02-16T05:01:49.363Z,67.40
2019-02-16T05:02:56.148Z,67.50
2019-02-16T05:04:02.212Z,67.70
2019-02-16T05:05:06.592Z,67.70
2019-02-16T05:06:11.059Z,67.70
2019-02-16T05:07:15.132Z,67.70
2019-02-16T05:08:19.240Z,67.70
2019-02-16T05:09:23.304Z,67.70
2019-02-16T05:10:27.391Z,67.60
2019-02-16T05:11:34.485Z,67.90
2019-02-16T05:12:38.551Z,67.70
2019-02-16T05:13:42.647Z,67.80
2019-02-16T05:14:47.162Z,67.80
2019-02-16T05:15:51.243Z,68.50
2019-02-16T05:16:55.317Z,68.00
2019-02-16T05:17:59.386Z,68.00
2019-02-16T05:19:03.474Z,68.10
2019-02-16T05:20:07.676Z,68.10
2019-02-16T05:21:12.058Z,68.20
2019-02-16T05:22:16.130Z,68.20
2019-02-16T05:23:21.366Z,68.10
2019-02-16T05:24:25.584Z,68.10
2019-02-16T05:25:29.662Z,68.00
2019-02-16T05:26:33.726Z,68.00
2019-02-16T05:27:37.798Z,68.00
2019-02-16T05:28:41.899Z,68.00
2019-02-16T05:29:46.039Z,68.00
2019-02-16T05:30:50.114Z,67.90
2019-02-16T05:31:54.179Z,68.00
2019-02-16T05:32:58.267Z,68.00
2019-02-16T05:34:02.351Z,68.10
2019-02-16T05:35:06.544Z,68.80
2019-02-16T05:36:11.203Z,68.20
2019-02-16T05:37:15.284Z,68.20
2019-02-16T05:38:19.351Z,68.10
2019-02-16T05:39:23.445Z,68.10
2019-02-16T05:40:27.523Z,68.30
2019-02-16T05:41:31.624Z,68.40
2019-02-16T05:42:35.715Z,68.50
2019-02-16T05:43:39.788Z,68.60
2019-02-16T05:44:43.944Z,68.60
2019-02-16T05:45:48.146Z,68.70
2019-02-16T05:46:52.289Z,68.90
2019-02-16T05:47:56.432Z,68.80
2019-02-16T05:49:00.509Z,68.80
2019-02-16T05:50:04.649Z,68.80
2019-02-16T05:51:08.819Z,68.80
2019-02-16T05:52:13.161Z,68.80
2019-02-16T05:53:17.311Z,68.80
2019-02-16T05:54:21.394Z,68.80
2019-02-16T05:55:25.466Z,68.90
2019-02-16T05:56:29.544Z,68.90
2019-02-16T05:57:33.620Z,68.90
2019-02-16T05:58:37.972Z,68.80
2019-02-16T05:59:42.047Z,68.90
2019-02-16T06:00:46.132Z,68.90
2019-02-16T06:01:53.775Z,68.80
2019-02-16T06:02:56.019Z,68.70
2019-02-16T06:04:01.664Z,68.80
2019-02-16T06:05:08.272Z,68.80
2019-02-16T06:06:14.160Z,68.90
2019-02-16T06:07:18.221Z,68.90
2019-02-16T06:08:22.286Z,68.80
2019-02-16T06:09:26.368Z,68.90
2019-02-16T06:10:36.479Z,69.00
2019-02-16T06:11:40.542Z,69.00
2019-02-16T06:12:44.659Z,69.00
2019-02-16T06:13:48.787Z,69.10
2019-02-16T06:14:52.864Z,69.10
2019-02-16T06:15:57.967Z,69.10
2019-02-16T06:17:02.040Z,69.20
2019-02-16T06:18:07.314Z,69.30
2019-02-16T06:19:12.034Z,69.30
2019-02-16T06:20:16.176Z,69.40
2019-02-16T06:21:20.264Z,69.40
2019-02-16T06:22:24.339Z,69.40
2019-02-16T06:23:28.451Z,69.50
2019-02-16T06:24:32.514Z,69.60
2019-02-16T06:25:36.587Z,69.70
2019-02-16T06:26:40.676Z,69.80
2019-02-16T06:27:44.753Z,69.80
2019-02-16T06:28:48.850Z,69.90
2019-02-16T06:29:52.985Z,70.00
2019-02-16T06:30:57.066Z,70.00
2019-02-16T06:32:01.176Z,70.00
2019-02-16T06:33:05.267Z,70.10
2019-02-16T06:34:09.880Z,70.10
2019-02-16T06:35:23.932Z,70.10
2019-02-16T06:36:34.779Z,70.00
2019-02-16T06:37:38.846Z,70.10
2019-02-16T06:38:42.927Z,70.20
2019-02-16T06:39:46.994Z,70.20
2019-02-16T06:40:51.063Z,70.20
2019-02-16T06:41:55.138Z,70.20
2019-02-16T06:42:59.245Z,70.20
2019-02-16T06:44:03.336Z,70.90
2019-02-16T06:45:07.550Z,70.30
2019-02-16T06:46:12.138Z,70.90
2019-02-16T06:47:16.273Z,70.20
2019-02-16T06:48:20.417Z,70.20
2019-02-16T06:49:24.488Z,70.20
2019-02-16T06:50:36.561Z,70.30
2019-02-16T06:51:34.395Z,70.30
2019-02-16T06:52:38.470Z,70.30
2019-02-16T06:53:45.531Z,70.30
2019-02-16T06:54:49.884Z,70.30
2019-02-16T06:55:59.899Z,70.30
2019-02-16T06:57:08.428Z,70.40
2019-02-16T06:58:12.944Z,70.30
2019-02-16T06:59:17.034Z,70.30
2019-02-16T07:00:26.221Z,70.30
2019-02-16T07:01:34.471Z,70.30
2019-02-16T07:02:38.868Z,70.30
2019-02-16T07:03:42.938Z,70.20
2019-02-16T07:04:47.011Z,70.30
2019-02-16T07:05:51.093Z,70.30
2019-02-16T07:06:55.177Z,70.20
2019-02-16T07:07:59.259Z,70.30
2019-02-16T07:09:04.518Z,70.40
2019-02-16T07:10:09.231Z,70.40
2019-02-16T07:11:13.651Z,70.40
2019-02-16T07:12:17.726Z,70.40
2019-02-16T07:13:23.627Z,70.50
2019-02-16T07:14:27.714Z,70.50
2019-02-16T07:16:10.011Z,70.40
2019-02-16T07:17:41.883Z,70.40
2019-02-16T07:18:51.259Z,70.30
2019-02-16T07:19:57.466Z,70.40
2019-02-16T07:21:01.794Z,70.40
2019-02-16T07:22:05.891Z,70.40
2019-02-16T07:23:11.347Z,70.30
2019-02-16T07:24:22.848Z,70.30
2019-02-16T07:25:26.908Z,70.30
2019-02-16T07:26:30.979Z,70.30
2019-02-16T07:27:35.076Z,70.30
2019-02-16T07:28:41.253Z,70.30
2019-02-16T07:29:45.326Z,70.30
2019-02-16T07:30:49.404Z,70.30
2019-02-16T07:31:53.496Z,70.20
2019-02-16T07:32:57.563Z,70.20
2019-02-16T07:34:01.690Z,70.20
2019-02-16T07:35:08.317Z,70.20
2019-02-16T07:36:12.532Z,70.10
2019-02-16T07:37:16.680Z,70.10
2019-02-16T07:38:20.791Z,70.00
2019-02-16T07:39:24.865Z,70.00
2019-02-16T07:40:28.935Z,70.00
2019-02-16T07:41:35.967Z,70.10
2019-02-16T07:42:58.782Z,70.10
2019-02-16T07:44:27.670Z,70.10
2019-02-16T07:45:49.359Z,70.20
2019-02-16T07:47:18.393Z,70.10
2019-02-16T07:48:29.496Z,70.10
2019-02-16T07:49:42.507Z,70.00
2019-02-16T07:50:53.347Z,70.00
2019-02-16T07:52:25.486Z,70.00
2019-02-16T07:54:00.380Z,70.00
2019-02-16T07:55:13.455Z,70.00
2019-02-16T07:56:45.487Z,70.10
2019-02-16T07:57:54.931Z,70.10
2019-02-16T07:59:30.133Z,70.10
2019-02-16T08:00:58.023Z,70.10
2019-02-16T08:02:13.234Z,70.00
2019-02-16T08:03:42.327Z,69.80
2019-02-16T08:04:53.343Z,69.90
2019-02-16T08:06:06.131Z,69.90
2019-02-16T08:07:20.916Z,69.70
2019-02-16T08:08:39.703Z,69.70
2019-02-16T08:10:02.763Z,69.60
2019-02-16T08:11:25.790Z,69.60
2019-02-16T08:13:07.260Z,69.60
2019-02-16T08:14:41.058Z,69.40
2019-02-16T08:16:00.544Z,69.10
2019-02-16T08:17:26.952Z,69.00
2019-02-16T08:18:45.655Z,68.90
2019-02-16T08:20:14.499Z,68.90
2019-02-16T08:21:44.140Z,68.80
2019-02-16T08:23:02.854Z,68.90
2019-02-16T08:24:43.790Z,68.80
2019-02-16T08:26:15.727Z,68.80
2019-02-16T08:27:26.760Z,68.80
2019-02-16T08:28:52.842Z,68.70
2019-02-16T08:30:14.367Z,69.30
2019-02-16T08:31:30.187Z,68.80
2019-02-16T08:32:48.780Z,68.70
2019-02-16T08:34:20.903Z,68.70
2019-02-16T08:35:37.593Z,68.80
2019-02-16T08:37:06.815Z,68.90
2019-02-16T08:38:31.213Z,68.90
2019-02-16T08:39:53.109Z,68.90
2019-02-16T08:41:20.326Z,68.90
2019-02-16T08:42:38.071Z,68.90
2019-02-16T08:43:59.444Z,69.40
2019-02-16T08:45:19.134Z,69.40
2019-02-16T08:46:30.052Z,68.80
2019-02-16T08:47:51.450Z,68.80
2019-02-16T08:49:17.582Z,69.30
2019-02-16T08:50:33.848Z,69.20
2019-02-16T08:51:47.905Z,68.60
2019-02-16T08:53:09.688Z,68.50
2019-02-16T08:54:32.926Z,68.40
2019-02-16T08:55:56.686Z,68.30
2019-02-16T08:57:13.219Z,67.90
2019-02-16T08:58:54.483Z,67.60
2019-02-16T09:00:12.362Z,67.50
2019-02-16T09:01:34.025Z,67.40
2019-02-16T09:02:48.593Z,67.30
2019-02-16T09:03:58.487Z,67.30
2019-02-16T09:05:15.429Z,67.20
2019-02-16T09:06:39.524Z,67.20
2019-02-16T09:08:02.322Z,67.30
2019-02-16T09:09:19.737Z,67.30
2019-02-16T09:10:35.310Z,67.20
2019-02-16T09:11:49.483Z,67.20
2019-02-16T09:13:00.585Z,67.00
2019-02-16T09:14:29.659Z,66.90
2019-02-16T09:16:01.582Z,66.90
2019-02-16T09:17:23.332Z,66.90
2019-02-16T09:18:44.654Z,66.70
2019-02-16T09:20:13.991Z,66.50
2019-02-16T09:21:28.078Z,66.20
2019-02-16T09:23:05.856Z,66.20
2019-02-16T09:24:19.858Z,66.10
2019-02-16T09:25:44.984Z,66.00
2019-02-16T09:27:13.818Z,66.00
2019-02-16T09:28:34.487Z,65.90
2019-02-16T09:30:02.183Z,65.90
2019-02-16T09:31:19.596Z,65.90
2019-02-16T09:32:50.062Z,65.80
2019-02-16T09:34:21.034Z,65.80
2019-02-16T09:35:43.313Z,65.70
2019-02-16T09:37:28.876Z,65.70
2019-02-16T09:38:45.398Z,65.80
2019-02-16T09:40:06.817Z,66.60
2019-02-16T09:41:36.255Z,65.90
2019-02-16T09:43:08.057Z,65.90
2019-02-16T09:44:27.207Z,65.90
2019-02-16T09:45:47.769Z,65.80
2019-02-16T09:46:57.184Z,65.90
2019-02-16T09:48:11.591Z,65.90
2019-02-16T09:49:37.394Z,65.90
2019-02-16T09:50:47.054Z,66.00
2019-02-16T09:52:12.097Z,65.90
2019-02-16T09:53:34.757Z,65.90
2019-02-16T09:54:48.695Z,65.90
2019-02-16T09:56:14.896Z,66.50
2019-02-16T09:57:37.381Z,65.70
2019-02-16T09:59:00.471Z,66.20
2019-02-16T10:00:26.335Z,65.50
2019-02-16T10:01:48.003Z,65.40
2019-02-16T10:03:14.083Z,65.50
2019-02-16T10:04:33.426Z,65.50
2019-02-16T10:05:54.868Z,65.50
2019-02-16T10:07:26.795Z,65.50
2019-02-16T10:08:48.259Z,65.60
2019-02-16T10:10:05.781Z,65.70
2019-02-16T10:11:32.943Z,65.90
2019-02-16T10:13:10.832Z,65.70
2019-02-16T10:14:36.514Z,65.60
2019-02-16T10:16:02.219Z,65.40
2019-02-16T10:17:37.192Z,65.10
2019-02-16T10:19:15.188Z,65.10
2019-02-16T10:20:28.198Z,65.10
2019-02-16T10:21:39.016Z,65.10
2019-02-16T10:23:03.146Z,65.10
2019-02-16T10:24:26.162Z,65.10
2019-02-16T10:25:52.215Z,65.10
2019-02-16T10:27:17.655Z,65.10
2019-02-16T10:28:40.746Z,65.20
2019-02-16T10:29:59.515Z,64.10
2019-02-16T10:31:22.871Z,64.00
2019-02-16T10:32:55.091Z,64.00
2019-02-16T10:34:30.301Z,64.00
2019-02-16T10:35:59.364Z,64.80
2019-02-16T10:37:22.820Z,64.10
2019-02-16T10:38:52.301Z,64.00
2019-02-16T10:40:09.218Z,64.00
2019-02-16T10:41:33.759Z,64.00
2019-02-16T10:42:48.111Z,64.00
2019-02-16T10:44:23.176Z,64.00
2019-02-16T10:46:04.203Z,63.90
2019-02-16T10:47:30.327Z,63.90
2019-02-16T10:48:51.512Z,64.00
2019-02-16T10:50:17.343Z,64.00
2019-02-16T10:51:28.151Z,64.10
2019-02-16T10:52:37.671Z,64.20
2019-02-16T10:53:57.129Z,64.20
2019-02-16T10:55:30.223Z,64.40
2019-02-16T10:56:40.718Z,64.50
2019-02-16T10:58:04.159Z,64.50
2019-02-16T10:59:26.039Z,64.50
2019-02-16T11:00:37.652Z,64.40
2019-02-16T11:02:06.855Z,64.20
2019-02-16T11:03:39.052Z,64.20
2019-02-16T11:04:58.534Z,64.00
2019-02-16T11:06:09.833Z,63.80
2019-02-16T11:07:27.815Z,63.70
2019-02-16T11:08:56.952Z,63.60
2019-02-16T11:10:18.453Z,63.50
2019-02-16T11:11:39.767Z,63.20
2019-02-16T11:13:01.312Z,63.20
2019-02-16T11:14:19.308Z,63.20
2019-02-16T11:15:43.514Z,63.30
2019-02-16T11:17:06.946Z,63.30
2019-02-16T11:18:36.090Z,63.20
2019-02-16T11:19:59.248Z,63.20
2019-02-16T11:21:28.147Z,63.20
2019-02-16T11:22:44.051Z,63.20
2019-02-16T11:24:22.103Z,63.20
2019-02-16T11:25:51.326Z,63.20
2019-02-16T11:27:12.746Z,63.30
2019-02-16T11:28:37.176Z,63.30
2019-02-16T11:30:00.294Z,63.10
2019-02-16T11:31:23.328Z,63.00
2019-02-16T11:32:36.875Z,62.90
2019-02-16T11:33:59.911Z,62.90
2019-02-16T11:35:40.870Z,62.80
2019-02-16T11:37:06.966Z,62.80
2019-02-16T11:38:33.155Z,62.80
2019-02-16T11:40:02.325Z,62.80
2019-02-16T11:41:40.478Z,62.80
2019-02-16T11:43:02.007Z,63.40
2019-02-16T11:44:20.892Z,62.80
2019-02-16T11:45:42.313Z,62.90
2019-02-16T11:47:05.372Z,62.90
2019-02-16T11:48:20.862Z,62.90
2019-02-16T11:49:45.464Z,62.80
2019-02-16T11:50:59.779Z,62.80
2019-02-16T11:52:21.599Z,62.20
2019-02-16T11:53:53.650Z,62.20
2019-02-16T11:55:17.110Z,62.80
2019-02-16T11:56:49.184Z,62.90
2019-02-16T11:58:16.660Z,62.30
2019-02-16T11:59:40.482Z,62.30
2019-02-16T12:00:53.244Z,62.30
2019-02-16T12:02:19.050Z,62.30
2019-02-16T12:03:28.742Z,62.40
2019-02-16T12:04:48.791Z,62.40
2019-02-16T12:06:11.819Z,62.40
2019-02-16T12:07:22.843Z,62.40
2019-02-16T12:08:40.067Z,62.50
2019-02-16T12:10:03.151Z,62.40
2019-02-16T12:11:32.235Z,62.30
2019-02-16T12:12:44.087Z,62.10
2019-02-16T12:14:17.819Z,61.70
2019-02-16T12:15:40.991Z,61.70
2019-02-16T12:16:55.643Z,61.60
2019-02-16T12:18:17.037Z,61.60
2019-02-16T12:19:40.070Z,61.50
2019-02-16T12:21:03.142Z,61.50
2019-02-16T12:22:15.831Z,61.50
2019-02-16T12:23:30.430Z,61.30
2019-02-16T12:24:40.328Z,60.90
2019-02-16T12:26:18.519Z,60.90
2019-02-16T12:27:39.831Z,60.60
2019-02-16T12:29:06.083Z,60.50
2019-02-16T12:30:41.304Z,60.40
2019-02-16T12:32:09.119Z,60.50
2019-02-16T12:33:26.238Z,60.60
2019-02-16T12:34:58.103Z,60.60
2019-02-16T12:36:21.904Z,60.60
2019-02-16T12:37:44.682Z,60.30
2019-02-16T12:39:02.959Z,60.00
2019-02-16T12:40:22.725Z,59.20
2019-02-16T12:41:45.910Z,59.10
2019-02-16T12:43:18.283Z,59.10
2019-02-16T12:44:39.471Z,59.20
2019-02-16T12:45:51.161Z,58.70
2019-02-16T12:47:13.578Z,58.40
2019-02-16T12:48:25.182Z,58.50
2019-02-16T12:50:00.445Z,58.40
2019-02-16T12:51:32.610Z,58.40
2019-02-16T12:52:56.625Z,58.50
2019-02-16T12:54:18.288Z,58.50
2019-02-16T12:55:41.307Z,58.60
2019-02-16T12:57:04.327Z,58.60
2019-02-16T12:58:33.327Z,58.20
2019-02-16T12:59:48.439Z,58.00
2019-02-16T13:01:10.001Z,57.90
2019-02-16T13:02:38.874Z,58.00
2019-02-16T13:03:54.807Z,57.80
2019-02-16T13:05:26.715Z,57.80
2019-02-16T13:06:49.563Z,57.70
2019-02-16T13:08:01.959Z,57.60
2019-02-16T13:09:15.509Z,57.60
2019-02-16T13:10:50.814Z,57.70
2019-02-16T13:12:18.176Z,57.60
2019-02-16T13:13:44.051Z,57.80
2019-02-16T13:14:57.892Z,57.80
2019-02-16T13:16:29.769Z,57.90
2019-02-16T13:17:52.791Z,58.00
2019-02-16T13:19:20.583Z,58.10
2019-02-16T13:20:43.543Z,58.00
2019-02-16T13:22:09.423Z,57.40
2019-02-16T13:23:37.011Z,56.90
2019-02-16T13:25:00.041Z,57.10
2019-02-16T13:26:25.058Z,56.90
2019-02-16T13:27:50.835Z,56.80
2019-02-16T13:29:06.329Z,56.90
2019-02-16T13:30:23.101Z,56.90
2019-02-16T13:31:58.178Z,57.00
2019-02-16T13:33:30.104Z,57.10
2019-02-16T13:34:49.847Z,57.10
2019-02-16T13:36:11.700Z,57.10
2019-02-16T13:37:30.590Z,57.00
2019-02-16T13:38:56.674Z,56.80
2019-02-16T13:40:15.438Z,56.70
2019-02-16T13:41:34.947Z,56.60
2019-02-16T13:42:54.255Z,56.50
2019-02-16T13:44:21.673Z,56.40
2019-02-16T13:45:37.829Z,56.40
2019-02-16T13:47:14.392Z,56.40
2019-02-16T13:48:53.267Z,56.00
2019-02-16T13:50:26.964Z,55.40
2019-02-16T13:51:44.229Z,55.10
2019-02-16T13:53:13.408Z,55.10
2019-02-16T13:54:42.450Z,54.70
2019-02-16T13:56:03.883Z,54.70
2019-02-16T13:57:42.091Z,54.80
2019-02-16T13:59:20.282Z,54.90
2019-02-16T14:00:50.869Z,54.90
2019-02-16T14:02:13.745Z,54.60
2019-02-16T14:03:51.621Z,54.60
2019-02-16T14:05:14.653Z,54.40
2019-02-16T14:06:24.963Z,54.20
2019-02-16T14:07:50.758Z,53.80
2019-02-16T14:09:14.059Z,53.80
2019-02-16T14:10:50.250Z,53.80
2019-02-16T14:12:10.186Z,53.80
2019-02-16T14:13:20.141Z,53.50
2019-02-16T14:14:49.011Z,53.00
2019-02-16T14:16:09.995Z,52.70
2019-02-16T14:17:24.959Z,52.70
2019-02-16T14:18:29.034Z,52.20
2019-02-16T14:19:33.119Z,52.30
2019-02-16T14:20:38.763Z,52.40
2019-02-16T14:21:42.972Z,52.00
2019-02-16T14:22:47.068Z,51.70
2019-02-16T14:23:51.143Z,51.70
2019-02-16T14:24:57.614Z,51.70
2019-02-16T14:26:01.687Z,51.70
2019-02-16T14:27:05.808Z,51.70
2019-02-16T14:28:10.771Z,51.70
2019-02-16T14:29:14.929Z,51.50
2019-02-16T14:30:19.001Z,51.50
2019-02-16T14:31:28.407Z,51.40
2019-02-16T14:32:28.922Z,51.40
2019-02-16T14:33:33.028Z,51.40
2019-02-16T14:34:37.121Z,51.20
2019-02-16T14:35:41.202Z,51.10
2019-02-16T14:36:46.180Z,51.50
2019-02-16T14:38:09.309Z,50.90
2019-02-16T14:39:21.168Z,50.90
2019-02-16T14:40:28.283Z,50.60
2019-02-16T14:41:32.365Z,50.70
2019-02-16T14:42:36.538Z,50.30
2019-02-16T14:43:40.609Z,49.80
2019-02-16T14:44:44.687Z,49.70
2019-02-16T14:45:48.783Z,49.80
2019-02-16T14:46:52.866Z,49.70
2019-02-16T14:47:56.967Z,49.70
2019-02-16T14:49:01.039Z,49.90
2019-02-16T14:50:05.409Z,50.10
2019-02-16T14:51:09.830Z,50.10
2019-02-16T14:52:13.924Z,50.00
2019-02-16T14:53:18.024Z,49.90
2019-02-16T14:54:22.104Z,49.80
2019-02-16T14:55:26.180Z,49.70
2019-02-16T14:56:30.276Z,49.60
2019-02-16T14:57:47.146Z,49.60
2019-02-16T14:58:54.428Z,49.50
2019-02-16T14:59:58.482Z,49.40
2019-02-16T15:01:02.664Z,49.30
2019-02-16T15:02:06.813Z,49.30
2019-02-16T15:03:12.235Z,49.20
2019-02-16T15:04:16.325Z,49.30
2019-02-16T15:05:20.736Z,49.20
2019-02-16T15:06:25.607Z,49.30
2019-02-16T15:07:29.730Z,49.20
2019-02-16T15:08:33.903Z,49.10
2019-02-16T15:09:38.945Z,49.10
2019-02-16T15:10:43.067Z,49.20
2019-02-16T15:11:47.151Z,49.20
2019-02-16T15:12:52.524Z,49.10
2019-02-16T15:13:56.619Z,49.20
2019-02-16T15:15:00.703Z,49.30
2019-02-16T15:16:04.785Z,49.40
2019-02-16T15:17:10.108Z,49.40
2019-02-16T15:18:14.229Z,49.40
2019-02-16T15:19:18.343Z,49.40
2019-02-16T15:20:22.434Z,49.50
2019-02-16T15:21:26.551Z,49.30
2019-02-16T15:22:30.663Z,49.40
2019-02-16T15:23:34.759Z,49.40
2019-02-16T15:24:38.845Z,49.40
2019-02-16T15:25:45.258Z,49.40
2019-02-16T15:26:49.335Z,49.30
2019-02-16T15:27:53.431Z,49.30